To NAV CANADA Home Page Login to a new session Search on AWWS site Feedback and Comments Disclaimer Vers la page française équivalente Tips FAQ What's new on the site To the Forecasts and Observations / NOTAM section To "File a Flight Plan" website Publications and other links Update of the User's profile FIC Telephone Numbers My Weather Data Folder Route Weather Data Regional Weather Data Local Weather Data To the Forecasts and Observations / NOTAM section
Request Generated 07/07/2015 at 19:55:14 UTC . Weather information available at that time is displayed.

METAR/TAF

MONT-JOLI/QC    

METAR CYYY 071900Z VRB02KT 10SM FEW020 OVC240 23/17 A2986 RMK SC1CI7
SLP111 DENSITY ALT 1200FT=
METAR CYYY 071800Z 36008KT 360V060 10SM FEW020 SCT080 OVC240 19/14
A2989 RMK SC1AC3CI4 SLP121 DENSITY ALT 700FT=
METAR CYYY 071700Z 07006KT 10SM FEW020 SCT080 OVC240 20/15 A2989 RMK
SC1AC3CI4 SLP123 DENSITY ALT 800FT=

TAF CYYY 071941Z 0720/0808 VRB03KT P6SM FEW020 SCT080
FM072200 17012KT P6SM BKN060
FM080200 19012G22KT P6SM BKN040 TEMPO 0802/0808 5SM -RA BR PROB30
0806/0808 VRB15G25KT 2SM +TSRA BR BKN015CB
RMK NXT FCST BY 080200Z=
Your time UTC time
Weather data provided by Environment Canada and NAV CANADA